Beaver, Oklahoma
Current Conditions -  °F | °C
As of 11:35 PM on Sunday 19 Oct 2014 (Local Time) from KLBL Reporting Station
Clear Clear  
Wind Chill: 15°   Ceiling: Unl
Heat Index: 15°   Visibility: 10mi
Dew Point:   Wind: 3mph
Humidity: 63%   Direction: 340°NNW
Pressure: 30.05"   Gusts: NA
Location:  36.82°N, 100.52°W
Report Text: KLBL 200435Z AUTO 34003KT 10SM CLR 15/08 A3005 RMK AO1
Loading
Personal Weather Stations






























Interactive Weather Map
Tropical Storm Tracking
New forecast layout! Learn more

10-Day Weather Forecast

Advertisements
Track Severe Weather on mobile